createdAt,value
2019-02-12T00:01:50.813Z,1.43
2019-02-12T00:04:20.049Z,1.30
2019-02-12T00:06:49.346Z,1.10
2019-02-12T00:09:18.671Z,1.57
2019-02-12T00:11:47.959Z,1.63
2019-02-12T00:14:17.197Z,1.70
2019-02-12T00:16:46.454Z,1.73
2019-02-12T00:19:15.761Z,1.30
2019-02-12T00:21:45.039Z,2.27
2019-02-12T00:24:14.277Z,1.57
2019-02-12T00:26:43.541Z,1.63
2019-02-12T00:29:12.810Z,2.57
2019-02-12T00:31:42.035Z,1.90
2019-02-12T00:34:11.253Z,1.40
2019-02-12T00:36:40.475Z,1.60
2019-02-12T00:39:09.740Z,1.40
2019-02-12T00:41:39.074Z,1.70
2019-02-12T00:44:08.347Z,1.73
2019-02-12T00:46:37.622Z,1.40
2019-02-12T00:49:06.850Z,1.70
2019-02-12T00:51:36.168Z,1.63
2019-02-12T00:54:05.452Z,1.50
2019-02-12T00:56:34.767Z,2.10
2019-02-12T00:59:03.989Z,1.67
2019-02-12T01:01:33.301Z,1.90
2019-02-12T01:04:02.485Z,1.87
2019-02-12T01:06:31.747Z,1.70
2019-02-12T01:09:01.093Z,1.77
2019-02-12T01:11:30.305Z,1.97
2019-02-12T01:13:59.562Z,1.70
2019-02-12T01:16:28.857Z,1.20
2019-02-12T01:18:58.107Z,1.53
2019-02-12T01:21:27.341Z,1.70
2019-02-12T01:23:56.580Z,1.50
2019-02-12T01:26:25.791Z,1.80
2019-02-12T01:28:55.015Z,1.30
2019-02-12T01:31:24.578Z,1.53
2019-02-12T01:33:53.793Z,1.50
2019-02-12T01:36:23.035Z,1.50
2019-02-12T01:38:52.377Z,1.93
2019-02-12T01:41:21.660Z,1.93
2019-02-12T01:43:50.987Z,1.13
2019-02-12T01:46:20.260Z,1.60
2019-02-12T01:48:49.528Z,1.77
2019-02-12T01:51:18.784Z,1.90
2019-02-12T01:53:48.046Z,1.90
2019-02-12T01:56:17.373Z,1.43
2019-02-12T01:58:46.705Z,1.70
2019-02-12T02:01:15.924Z,2.00
2019-02-12T02:03:45.172Z,1.60
2019-02-12T02:06:14.403Z,1.60
2019-02-12T02:08:43.682Z,1.87
2019-02-12T02:11:12.955Z,2.20
2019-02-12T02:13:42.156Z,1.90
2019-02-12T02:16:11.421Z,1.57
2019-02-12T02:18:40.630Z,1.57
2019-02-12T02:21:09.874Z,1.90
2019-02-12T02:23:39.170Z,1.90
2019-02-12T02:26:08.501Z,1.80
2019-02-12T02:28:37.746Z,2.07
2019-02-12T02:31:07.084Z,2.13
2019-02-12T02:33:36.325Z,2.10
2019-02-12T02:36:05.625Z,1.87
2019-02-12T02:38:34.833Z,1.80
2019-02-12T02:41:04.197Z,1.73
2019-02-12T02:43:33.432Z,1.27
2019-02-12T02:46:02.657Z,1.80
2019-02-12T02:48:31.868Z,1.77
2019-02-12T02:51:01.076Z,1.70
2019-02-12T02:53:30.372Z,1.60
2019-02-12T02:55:59.677Z,2.30
2019-02-12T02:58:28.968Z,2.00
2019-02-12T03:00:58.285Z,2.03
2019-02-12T03:03:27.584Z,2.00
2019-02-12T03:05:56.885Z,1.50
2019-02-12T03:08:26.172Z,1.53
2019-02-12T03:10:55.483Z,2.20
2019-02-12T03:13:24.769Z,2.23
2019-02-12T03:15:54.096Z,1.53
2019-02-12T03:18:23.371Z,1.30
2019-02-12T03:20:52.679Z,2.13
2019-02-12T03:23:21.932Z,1.57
2019-02-12T03:25:51.155Z,1.67
2019-02-12T03:28:20.496Z,1.40
2019-02-12T03:30:49.790Z,1.30
2019-02-12T03:33:19.018Z,1.67
2019-02-12T03:35:48.260Z,2.27
2019-02-12T03:38:17.592Z,1.87
2019-02-12T03:40:46.874Z,2.10
2019-02-12T03:43:16.095Z,1.40
2019-02-12T03:45:45.314Z,2.10
2019-02-12T03:48:14.596Z,1.57
2019-02-12T03:50:43.816Z,1.70
2019-02-12T03:53:13.102Z,2.23
2019-02-12T03:55:42.352Z,2.67
2019-02-12T03:58:11.590Z,1.83
2019-02-12T04:00:40.827Z,1.83
2019-02-12T04:03:10.145Z,1.60
2019-02-12T04:05:40.141Z,1.87
2019-02-12T04:08:09.378Z,2.20
2019-02-12T04:10:38.658Z,2.30
2019-02-12T04:13:07.905Z,2.03
2019-02-12T04:15:37.286Z,1.60
2019-02-12T04:18:06.586Z,2.00
2019-02-12T04:20:35.823Z,1.80
2019-02-12T04:23:05.067Z,2.10
2019-02-12T04:25:34.309Z,2.43
2019-02-12T04:28:03.579Z,1.43
2019-02-12T04:30:32.904Z,2.00
2019-02-12T04:33:02.266Z,1.83
2019-02-12T04:35:31.539Z,1.73
2019-02-12T04:38:00.805Z,1.73
2019-02-12T04:40:30.120Z,1.63
2019-02-12T04:42:59.370Z,2.43
2019-02-12T04:45:28.650Z,1.90
2019-02-12T04:47:58.024Z,1.67
2019-02-12T04:50:27.285Z,1.87
2019-02-12T04:52:56.617Z,1.60
2019-02-12T04:55:25.892Z,1.70
2019-02-12T04:57:55.408Z,1.80
2019-02-12T05:00:24.599Z,1.57
2019-02-12T05:02:53.903Z,2.53
2019-02-12T05:05:23.196Z,2.07
2019-02-12T05:07:55.228Z,2.53
2019-02-12T05:10:25.222Z,1.57
2019-02-12T05:12:54.993Z,1.87
2019-02-12T05:15:24.289Z,2.63
2019-02-12T05:17:53.551Z,1.60
2019-02-12T05:20:22.973Z,1.70
2019-02-12T05:22:52.203Z,1.43
2019-02-12T05:25:21.465Z,1.30
2019-02-12T05:27:50.697Z,1.63
2019-02-12T05:30:19.929Z,1.80
2019-02-12T05:32:49.196Z,1.30
2019-02-12T05:35:18.620Z,1.63
2019-02-12T05:37:48.483Z,1.77
2019-02-12T05:40:17.729Z,1.80
2019-02-12T05:42:47.971Z,1.60
2019-02-12T05:45:17.198Z,1.30
2019-02-12T05:47:46.491Z,1.47
2019-02-12T05:50:15.833Z,1.47
2019-02-12T05:52:53.574Z,1.53
2019-02-12T05:55:14.332Z,0.90
2019-02-12T05:57:43.615Z,1.13
2019-02-12T06:00:14.134Z,1.83
2019-02-12T06:02:43.352Z,1.63
2019-02-12T06:05:16.785Z,1.83
2019-02-12T06:07:46.160Z,1.40
2019-02-12T06:10:15.659Z,1.90
2019-02-12T06:12:44.953Z,2.00
2019-02-12T06:15:14.312Z,1.37
2019-02-12T06:17:43.596Z,1.57
2019-02-12T06:20:12.890Z,1.80
2019-02-12T06:22:42.126Z,1.73
2019-02-12T06:25:11.405Z,1.83
2019-02-12T06:27:40.722Z,1.87
2019-02-12T06:30:10.016Z,2.00
2019-02-12T06:32:39.268Z,1.70
2019-02-12T06:35:08.585Z,2.73
2019-02-12T06:37:37.857Z,2.10
2019-02-12T06:40:07.765Z,2.23
2019-02-12T06:42:37.017Z,2.30
2019-02-12T06:45:07.694Z,2.00
2019-02-12T06:47:36.984Z,1.70
2019-02-12T06:50:07.655Z,2.17
2019-02-12T06:52:37.030Z,1.90
2019-02-12T06:55:07.131Z,2.23
2019-02-12T06:57:36.890Z,2.23
2019-02-12T07:00:06.257Z,2.23
2019-02-12T07:03:14.057Z,3.07
2019-02-12T07:05:59.313Z,1.70
2019-02-12T07:09:02.568Z,2.77
2019-02-12T07:11:43.369Z,1.67
2019-02-12T07:14:25.241Z,2.40
2019-02-12T07:17:18.111Z,2.87
2019-02-12T07:20:02.048Z,2.20
2019-02-12T07:22:58.433Z,2.10
2019-02-12T07:26:19.666Z,2.33
2019-02-12T07:29:18.515Z,2.20
2019-02-12T07:32:19.985Z,1.87
2019-02-12T07:35:49.156Z,2.20
2019-02-12T07:38:34.815Z,2.53
2019-02-12T07:41:20.190Z,2.17
2019-02-12T07:44:08.151Z,1.73
2019-02-12T07:47:24.335Z,1.23
2019-02-12T07:50:18.260Z,1.93
2019-02-12T07:53:31.327Z,1.97
2019-02-12T07:56:38.225Z,2.03
2019-02-12T07:59:39.191Z,1.77
2019-02-12T08:03:08.583Z,2.47
2019-02-12T08:06:19.459Z,1.87
2019-02-12T08:09:35.462Z,2.53
2019-02-12T08:12:30.421Z,1.90
2019-02-12T08:15:11.368Z,2.23
2019-02-12T08:17:51.959Z,2.13
2019-02-12T08:20:54.147Z,1.70
2019-02-12T08:23:56.120Z,2.20
2019-02-12T08:26:57.257Z,1.83
2019-02-12T08:29:44.790Z,2.60
2019-02-12T08:32:52.468Z,1.90
2019-02-12T08:35:46.829Z,2.17
2019-02-12T08:38:47.207Z,2.47
2019-02-12T08:42:04.164Z,2.37
2019-02-12T08:44:55.962Z,2.40
2019-02-12T08:47:38.650Z,2.10
2019-02-12T08:50:42.239Z,2.10
2019-02-12T08:53:52.273Z,2.10
2019-02-12T08:56:45.441Z,1.87
2019-02-12T08:59:59.947Z,1.70
2019-02-12T09:02:57.517Z,1.63
2019-02-12T09:06:01.263Z,1.77
2019-02-12T09:09:00.377Z,1.50
2019-02-12T09:12:08.616Z,1.77
2019-02-12T09:14:58.678Z,1.87
2019-02-12T09:18:09.356Z,1.70
2019-02-12T09:21:19.465Z,2.10
2019-02-12T09:24:17.995Z,1.87
2019-02-12T09:27:38.489Z,1.93
2019-02-12T09:30:26.677Z,1.40
2019-02-12T09:33:42.499Z,1.67
2019-02-12T09:37:02.607Z,1.83
2019-02-12T09:40:03.195Z,1.87
2019-02-12T09:43:13.535Z,1.70
2019-02-12T09:46:20.405Z,2.23
2019-02-12T09:49:04.951Z,1.70
2019-02-12T09:52:21.689Z,2.00
2019-02-12T09:55:16.480Z,1.93
2019-02-12T09:58:23.455Z,2.10
2019-02-12T10:01:24.997Z,1.50
2019-02-12T10:04:35.287Z,1.70
2019-02-12T10:07:27.079Z,1.60
2019-02-12T10:10:33.487Z,1.93
2019-02-12T10:13:17.953Z,2.40
2019-02-12T10:16:20.291Z,2.07
2019-02-12T10:19:31.369Z,1.37
2019-02-12T10:22:37.068Z,2.67
2019-02-12T10:25:25.382Z,2.07
2019-02-12T10:28:31.865Z,1.87
2019-02-12T10:31:28.329Z,2.40
2019-02-12T10:33:57.601Z,3.13
2019-02-12T10:36:26.871Z,3.07
2019-02-12T10:38:56.143Z,2.57
2019-02-12T10:41:25.357Z,2.03
2019-02-12T10:43:54.627Z,2.70
2019-02-12T10:46:23.919Z,2.50
2019-02-12T10:48:53.101Z,2.63
2019-02-12T10:51:22.492Z,2.80
2019-02-12T10:53:51.700Z,2.70
2019-02-12T10:56:20.999Z,3.00
2019-02-12T10:58:50.293Z,2.63
2019-02-12T11:01:19.695Z,2.63
2019-02-12T11:03:48.977Z,2.60
2019-02-12T11:06:18.303Z,2.60
2019-02-12T11:08:47.708Z,2.73
2019-02-12T11:11:17.051Z,2.63
2019-02-12T11:13:46.398Z,2.10
2019-02-12T11:16:15.653Z,2.50
2019-02-12T11:18:45.065Z,2.80
2019-02-12T11:21:14.346Z,2.50
2019-02-12T11:23:43.570Z,2.30
2019-02-12T11:26:12.911Z,2.47
2019-02-12T11:28:42.211Z,2.10
2019-02-12T11:31:11.555Z,2.17
2019-02-12T11:33:40.827Z,2.90
2019-02-12T11:36:10.129Z,3.40
2019-02-12T11:38:39.368Z,2.40
2019-02-12T11:41:08.653Z,2.40
2019-02-12T11:43:37.905Z,2.80
2019-02-12T11:46:07.219Z,1.90
2019-02-12T11:48:36.425Z,2.10
2019-02-12T11:51:05.725Z,2.40
2019-02-12T11:53:35.017Z,2.57
2019-02-12T11:56:04.265Z,2.43
2019-02-12T11:58:33.483Z,2.00
2019-02-12T12:01:03.794Z,2.27
2019-02-12T12:03:33.077Z,1.83
2019-02-12T12:06:02.321Z,2.00
2019-02-12T12:08:31.663Z,1.70
2019-02-12T12:11:00.944Z,1.70
2019-02-12T12:13:30.289Z,1.77
2019-02-12T12:15:59.551Z,1.97
2019-02-12T12:18:28.783Z,2.10
2019-02-12T12:20:58.045Z,1.90
2019-02-12T12:23:27.405Z,1.73
2019-02-12T12:25:56.683Z,1.87
2019-02-12T12:28:25.952Z,1.50
2019-02-12T12:30:55.275Z,0.97
2019-02-12T12:33:24.643Z,1.60
2019-02-12T12:35:53.923Z,1.80
2019-02-12T12:38:23.133Z,1.90
2019-02-12T12:40:52.377Z,1.20
2019-02-12T12:43:21.673Z,1.43
2019-02-12T12:45:50.943Z,2.17
2019-02-12T12:48:20.219Z,1.57
2019-02-12T12:50:49.453Z,1.97
2019-02-12T12:53:18.784Z,1.73
2019-02-12T12:55:47.999Z,1.70
2019-02-12T12:58:17.313Z,1.43
2019-02-12T13:00:46.527Z,1.60
2019-02-12T13:03:15.848Z,1.53
2019-02-12T13:05:45.169Z,1.40
2019-02-12T13:08:14.485Z,1.40
2019-02-12T13:10:44.656Z,1.23
2019-02-12T13:13:12.997Z,1.60
2019-02-12T13:15:42.213Z,1.60
2019-02-12T13:18:11.466Z,1.80
2019-02-12T13:20:40.792Z,1.47
2019-02-12T13:23:10.031Z,1.47
2019-02-12T13:25:39.339Z,1.10
2019-02-12T13:28:08.666Z,1.50
2019-02-12T13:30:37.967Z,1.60
2019-02-12T13:33:07.251Z,1.67
2019-02-12T13:35:36.569Z,1.57
2019-02-12T13:38:05.897Z,1.73
2019-02-12T13:40:35.219Z,2.20
2019-02-12T13:43:04.474Z,1.67
2019-02-12T13:45:33.751Z,1.90
2019-02-12T13:48:03.142Z,1.90
2019-02-12T13:50:32.375Z,1.80
2019-02-12T13:53:01.615Z,2.33
2019-02-12T13:55:30.858Z,1.80
2019-02-12T13:58:00.141Z,2.10
2019-02-12T14:00:29.428Z,2.13
2019-02-12T14:02:58.705Z,2.43
2019-02-12T14:05:28.012Z,2.13
2019-02-12T14:07:57.301Z,2.10
2019-02-12T14:10:26.577Z,2.30
2019-02-12T14:12:55.875Z,2.23
2019-02-12T14:15:25.121Z,3.17
2019-02-12T14:17:56.047Z,2.30
2019-02-12T14:20:23.671Z,2.40
2019-02-12T14:22:52.981Z,1.93
2019-02-12T14:25:25.593Z,1.90
2019-02-12T14:27:51.601Z,2.70
2019-02-12T14:30:20.990Z,2.43
2019-02-12T14:32:50.419Z,2.00
2019-02-12T14:35:19.683Z,2.37
2019-02-12T14:37:48.924Z,2.20
2019-02-12T14:40:18.142Z,1.50
2019-02-12T14:42:47.403Z,1.47
2019-02-12T14:45:16.665Z,1.73
2019-02-12T14:47:46.011Z,2.10
2019-02-12T14:50:15.245Z,1.50
2019-02-12T14:52:44.521Z,1.93
2019-02-12T14:55:13.896Z,1.77
2019-02-12T14:57:43.181Z,1.77
2019-02-12T15:00:12.866Z,2.43
2019-02-12T15:02:42.218Z,1.93
2019-02-12T15:05:11.503Z,1.63
2019-02-12T15:07:40.809Z,2.13
2019-02-12T15:10:10.823Z,1.97
2019-02-12T15:12:40.123Z,2.10
2019-02-12T15:15:09.645Z,2.00
2019-02-12T15:17:38.932Z,2.40
2019-02-12T15:20:08.526Z,2.67
2019-02-12T15:22:37.805Z,2.37
2019-02-12T15:25:07.376Z,2.07
2019-02-12T15:27:36.619Z,2.90
2019-02-12T15:30:10.349Z,2.80
2019-02-12T15:32:39.645Z,2.70
2019-02-12T15:35:09.708Z,2.70
2019-02-12T15:37:41.852Z,2.63
2019-02-12T15:40:12.479Z,3.17
2019-02-12T15:42:41.773Z,3.73
2019-02-12T15:45:13.118Z,2.73
2019-02-12T15:47:42.346Z,3.83
2019-02-12T15:50:11.629Z,3.20
2019-02-12T15:52:40.939Z,3.20
2019-02-12T15:55:11.292Z,3.50
2019-02-12T15:57:43.108Z,2.73
2019-02-12T16:00:15.751Z,3.30
2019-02-12T16:02:44.162Z,3.13
2019-02-12T16:05:13.563Z,2.80
2019-02-12T16:07:44.666Z,3.10
2019-02-12T16:10:14.900Z,3.73
2019-02-12T16:12:43.124Z,3.13
2019-02-12T16:15:14.271Z,3.90
2019-02-12T16:17:43.555Z,3.20
2019-02-12T16:20:12.864Z,3.17
2019-02-12T16:22:42.159Z,3.27
2019-02-12T16:25:11.434Z,3.23
2019-02-12T16:27:40.759Z,2.53
2019-02-12T16:30:12.638Z,3.23
2019-02-12T16:32:41.873Z,3.70
2019-02-12T16:35:12.355Z,3.53
2019-02-12T16:37:41.650Z,3.73
2019-02-12T16:40:11.662Z,3.20
2019-02-12T16:42:40.931Z,3.17
2019-02-12T16:45:13.141Z,3.77
2019-02-12T16:47:42.474Z,3.70
2019-02-12T16:50:11.720Z,3.60
2019-02-12T16:52:40.971Z,3.53
2019-02-12T16:55:10.324Z,3.77
2019-02-12T16:57:39.637Z,3.10
2019-02-12T17:00:11.780Z,4.23
2019-02-12T17:02:41.024Z,3.90
2019-02-12T17:05:11.313Z,4.20
2019-02-12T17:07:40.558Z,4.00
2019-02-12T17:10:09.901Z,3.87
2019-02-12T17:12:39.144Z,4.33
2019-02-12T17:15:09.217Z,4.40
2019-02-12T17:17:38.571Z,4.57
2019-02-12T17:20:10.709Z,4.43
2019-02-12T17:22:39.925Z,4.97
2019-02-12T17:25:10.015Z,4.43
2019-02-12T17:27:44.726Z,4.97
2019-02-12T17:30:14.054Z,5.00
2019-02-12T17:32:43.395Z,5.47
2019-02-12T17:35:12.671Z,5.87
2019-02-12T17:37:41.912Z,5.83
2019-02-12T17:40:11.759Z,6.17
2019-02-12T17:42:40.992Z,6.10
2019-02-12T17:45:11.806Z,5.83
2019-02-12T17:47:41.065Z,6.43
2019-02-12T17:50:11.017Z,6.80
2019-02-12T17:52:40.364Z,7.70
2019-02-12T17:55:09.650Z,7.10
2019-02-12T17:57:38.932Z,7.90
2019-02-12T18:00:12.966Z,6.90
2019-02-12T18:02:42.269Z,8.30
2019-02-12T18:05:11.562Z,8.40
2019-02-12T18:07:40.865Z,8.90
2019-02-12T18:10:10.157Z,9.10
2019-02-12T18:12:39.429Z,8.33
2019-02-12T18:15:09.472Z,8.90
2019-02-12T18:17:38.781Z,9.60
2019-02-12T18:20:08.584Z,9.77
2019-02-12T18:22:37.861Z,11.17
2019-02-12T18:25:08.069Z,10.07
2019-02-12T18:27:37.324Z,11.13
2019-02-12T18:30:08.888Z,10.80
2019-02-12T18:32:38.174Z,11.60
2019-02-12T18:35:07.438Z,12.70
2019-02-12T18:37:36.775Z,13.33
2019-02-12T18:40:06.587Z,13.17
2019-02-12T18:42:35.882Z,12.87
2019-02-12T18:45:05.493Z,12.50
2019-02-12T18:47:34.776Z,14.53
2019-02-12T18:50:04.909Z,14.03
2019-02-12T18:52:34.126Z,14.00
2019-02-12T18:55:03.408Z,13.63
2019-02-12T18:57:32.662Z,15.77
2019-02-12T19:00:01.900Z,14.97
2019-02-12T19:02:31.222Z,14.93
2019-02-12T19:05:00.489Z,15.77
2019-02-12T19:07:29.714Z,15.60
2019-02-12T19:09:59.001Z,15.57
2019-02-12T19:12:28.445Z,15.70
2019-02-12T19:14:57.699Z,15.60
2019-02-12T19:17:27.103Z,16.63
2019-02-12T19:19:56.357Z,15.57
2019-02-12T19:22:25.612Z,16.47
2019-02-12T19:24:54.929Z,15.83
2019-02-12T19:27:24.337Z,16.50
2019-02-12T19:29:53.639Z,16.30
2019-02-12T19:32:22.874Z,15.97
2019-02-12T19:34:52.147Z,16.33
2019-02-12T19:37:21.422Z,15.60
2019-02-12T19:39:50.694Z,15.20
2019-02-12T19:42:19.906Z,15.97
2019-02-12T19:44:49.157Z,15.63
2019-02-12T19:47:18.425Z,20.53
2019-02-12T19:49:47.655Z,15.70
2019-02-12T19:52:16.961Z,16.20
2019-02-12T19:54:46.205Z,16.13
2019-02-12T19:57:15.478Z,16.93
2019-02-12T19:59:44.825Z,16.10
2019-02-12T20:02:14.157Z,16.93
2019-02-12T20:04:43.405Z,17.17
2019-02-12T20:07:12.680Z,16.83
2019-02-12T20:09:42.019Z,17.23
2019-02-12T20:12:11.332Z,17.07
2019-02-12T20:14:40.639Z,15.50
2019-02-12T20:17:09.867Z,16.63
2019-02-12T20:19:39.137Z,16.70
2019-02-12T20:22:08.730Z,16.80
2019-02-12T20:24:38.029Z,18.00
2019-02-12T20:27:07.333Z,17.30
2019-02-12T20:29:36.696Z,17.30
2019-02-12T20:32:05.983Z,17.23
2019-02-12T20:34:35.349Z,17.17
2019-02-12T20:37:07.312Z,16.27
2019-02-12T20:39:36.540Z,18.00
2019-02-12T20:42:05.823Z,15.07
2019-02-12T20:44:35.195Z,16.80
2019-02-12T20:47:04.609Z,18.60
2019-02-12T20:49:33.871Z,18.17
2019-02-12T20:52:03.147Z,17.37
2019-02-12T20:54:32.424Z,17.83
2019-02-12T20:57:01.726Z,17.63
2019-02-12T20:59:30.972Z,18.67
2019-02-12T21:02:00.242Z,17.70
2019-02-12T21:04:29.473Z,17.67
2019-02-12T21:06:58.701Z,18.50
2019-02-12T21:09:27.995Z,18.13
2019-02-12T21:11:57.263Z,19.00
2019-02-12T21:14:26.532Z,17.57
2019-02-12T21:16:55.801Z,18.07
2019-02-12T21:19:25.158Z,18.13
2019-02-12T21:21:54.423Z,19.20
2019-02-12T21:24:23.735Z,19.70
2019-02-12T21:26:52.995Z,19.50
2019-02-12T21:29:22.365Z,19.33
2019-02-12T21:31:51.611Z,18.90
2019-02-12T21:34:20.857Z,19.67
2019-02-12T21:36:50.261Z,19.30
2019-02-12T21:39:21.643Z,17.50
2019-02-12T21:41:50.893Z,19.17
2019-02-12T21:44:20.163Z,20.03
2019-02-12T21:46:49.429Z,19.93
2019-02-12T21:49:18.683Z,19.30
2019-02-12T21:51:47.991Z,18.37
2019-02-12T21:54:17.283Z,19.50
2019-02-12T21:56:46.560Z,19.13
2019-02-12T21:59:15.877Z,18.60
2019-02-12T22:01:45.174Z,19.03
2019-02-12T22:04:14.430Z,18.73
2019-02-12T22:06:43.663Z,19.77
2019-02-12T22:09:13.007Z,19.93
2019-02-12T22:11:42.241Z,20.00
2019-02-12T22:14:11.531Z,19.90
2019-02-12T22:16:40.849Z,19.53
2019-02-12T22:19:10.108Z,20.73
2019-02-12T22:21:39.380Z,19.50
2019-02-12T22:24:08.735Z,21.20
2019-02-12T22:26:38.027Z,21.70
2019-02-12T22:29:07.447Z,20.43
2019-02-12T22:31:36.954Z,20.80
2019-02-12T22:34:06.439Z,19.87
2019-02-12T22:36:36.112Z,20.47
2019-02-12T22:39:06.835Z,21.33
2019-02-12T22:41:36.221Z,21.33
2019-02-12T22:44:06.021Z,20.70
2019-02-12T22:46:35.292Z,20.90
2019-02-12T22:49:04.823Z,19.50
2019-02-12T22:51:34.262Z,19.40
2019-02-12T22:54:03.631Z,19.33
2019-02-12T22:56:33.015Z,19.80
2019-02-12T22:59:02.548Z,19.37
2019-02-12T23:01:37.453Z,19.40
2019-02-12T23:04:08.582Z,19.30
2019-02-12T23:06:37.857Z,18.07
2019-02-12T23:09:16.122Z,20.43
2019-02-12T23:11:45.606Z,17.73
2019-02-12T23:14:14.824Z,16.27
2019-02-12T23:16:44.723Z,17.80
2019-02-12T23:19:14.233Z,17.67
2019-02-12T23:21:43.479Z,17.93
2019-02-12T23:24:13.199Z,16.57
2019-02-12T23:26:47.889Z,16.83
2019-02-12T23:29:17.740Z,18.47
2019-02-12T23:31:47.896Z,16.87
2019-02-12T23:34:17.357Z,18.93
2019-02-12T23:36:50.021Z,17.10
2019-02-12T23:39:19.553Z,17.07
2019-02-12T23:41:49.612Z,17.90
2019-02-12T23:44:21.733Z,17.73
2019-02-12T23:46:51.419Z,17.17
2019-02-12T23:49:20.879Z,16.93
2019-02-12T23:51:50.195Z,18.43
2019-02-12T23:54:19.492Z,19.10
2019-02-12T23:56:48.901Z,17.27
2019-02-12T23:59:18.394Z,18.83
